M I D A S
Marine Information and Data Acquisition System
Tripno 529 of the Zeeleeuw from 2003-07-02 06:09:36 to 2003-07-02 13:08:40
Back to CruiseResearch ActivitiesStationsMapUnderway DataData graphs

EquipmentUnitsComment
TimeDGPSUTC
LatitudeDGPSDM.mWGS84
LongitudeDGPSDM.mWGS84
HeadingGyrodeg 
SOGDGPSknotsSpeed over ground
COGDGPSdegCourse over ground
DepthEcho soundermeters200 kHz
Missing or incorrect values are displayed as -999
Navigation data collected by the RV Zeeleeuw from 2003-07-02 06:09:36 to 2003-07-02 13:08:40
Time Latitude Longitude Heading SOG COG Depth
2003-07-02 06:10:38 51°13.66 2°55.85 119.6 5.3 297 -999
2003-07-02 06:11:36 51°13.69 2°55.74 101.1 2.5 285 13.1
2003-07-02 06:12:34 51°13.7 2°55.74 44.8 1.4 31 13
2003-07-02 06:13:32 51°13.74 2°55.72 332 4.9 326 10.7
2003-07-02 06:14:32 51°13.85 2°55.62 339.4 8.4 335 10.3
2003-07-02 06:15:34 51°13.99 2°55.52 341 9 336 10.8
2003-07-02 06:16:34 51°14.12 2°55.42 338.1 9.1 333 10.7
2003-07-02 06:17:32 51°14.24 2°55.29 320.7 8.9 315 10.8
2003-07-02 06:18:34 51°14.34 2°55.1 315.9 9.4 311 9.9
2003-07-02 06:19:34 51°14.42 2°54.88 289.4 10 280 10.4
2003-07-02 06:20:34 51°14.41 2°54.6 263.8 11.4 257 10.3
2003-07-02 06:21:34 51°14.34 2°54.3 251.3 12.6 245 8.8
2003-07-02 06:22:32 51°14.24 2°54.01 245.8 12.6 240 8.7
2003-07-02 06:23:34 51°14.13 2°53.71 246 12.7 241 8.7
2003-07-02 06:24:34 51°14.02 2°53.41 246.3 13.6 241 9
2003-07-02 06:25:34 51°13.91 2°53.08 246.1 13.9 241 9.3
2003-07-02 06:26:34 51°13.79 2°52.76 245.8 14.1 240 9.5
2003-07-02 06:27:34 51°13.68 2°52.43 246.3 14.1 241 9.8
2003-07-02 06:28:34 51°13.56 2°52.11 246.7 14.1 240 10
2003-07-02 06:29:34 51°13.45 2°51.78 246.1 14 241 10
2003-07-02 06:30:32 51°13.34 2°51.46 246.5 14.2 241 10
2003-07-02 06:31:34 51°13.22 2°51.12 246.7 14.1 243 10
2003-07-02 06:32:34 51°13.11 2°50.79 247 14.1 240 10.3
2003-07-02 06:33:34 51°12.99 2°50.47 246.5 14.1 241 10.3
2003-07-02 06:34:34 51°12.88 2°50.14 245.9 14.1 241 10.4
2003-07-02 06:35:34 51°12.76 2°49.81 246.2 14.2 241 10.5
2003-07-02 06:36:34 51°12.65 2°49.48 246.2 14.2 241 10.6
2003-07-02 06:37:34 51°12.53 2°49.16 245.9 14.1 240 10.6
2003-07-02 06:38:34 51°12.42 2°48.83 245.9 14.1 241 10.7
2003-07-02 06:39:34 51°12.31 2°48.5 245.7 14.1 241 10.8
2003-07-02 06:40:34 51°12.2 2°48.17 246.5 14.1 242 10.7
2003-07-02 06:41:34 51°12.08 2°47.84 245.9 14.1 242 10.8
2003-07-02 06:42:34 51°11.98 2°47.51 249.3 14.1 244 11
2003-07-02 06:43:34 51°11.88 2°47.16 251.1 14.3 247 10.9
2003-07-02 06:44:34 51°11.79 2°46.82 252.4 14.2 247 11
2003-07-02 06:45:34 51°11.69 2°46.48 245.4 14.2 241 11.2
2003-07-02 06:46:34 51°11.58 2°46.14 245.9 14.3 242 11
2003-07-02 06:47:34 51°11.47 2°45.81 246.4 14.2 243 10.7
2003-07-02 06:48:34 51°11.36 2°45.47 246.9 14.3 243 10.4
2003-07-02 06:49:34 51°11.25 2°45.14 246.7 14.3 243 10.3
2003-07-02 06:50:34 51°11.14 2°44.81 245.7 14.1 242 9.9
2003-07-02 06:51:34 51°11.03 2°44.47 246.3 14.1 243 9.7
2003-07-02 06:52:34 51°10.93 2°44.14 246.2 14.2 242 9.3
2003-07-02 06:53:34 51°10.82 2°43.8 245.9 14.2 242 8.9
2003-07-02 06:54:34 51°10.71 2°43.47 246.9 14.1 243 8.8
2003-07-02 06:55:34 51°10.6 2°43.14 246.2 14.1 243 8.4
2003-07-02 06:56:34 51°10.5 2°42.8 246.9 14 244 8.2
2003-07-02 06:57:34 51°10.39 2°42.47 246.8 14.1 244 8.1
2003-07-02 06:58:32 51°10.3 2°42.14 248.9 14.1 246 8.1
2003-07-02 06:59:34 51°10.2 2°41.79 248.7 14.2 246 8.1
2003-07-02 07:00:34 51°10.1 2°41.45 247.9 14.1 245 8.1
2003-07-02 07:01:34 51°10 2°41.11 248.5 14.2 247 8.1
2003-07-02 07:02:32 51°9.91 2°40.78 248.5 14.1 246 8.2
2003-07-02 07:03:34 51°9.81 2°40.43 248.9 14.2 247 8.3
2003-07-02 07:04:34 51°9.71 2°40.09 248.3 14.1 246 8.3
2003-07-02 07:05:34 51°9.62 2°39.74 247.7 14.2 245 8.4
2003-07-02 07:06:34 51°9.53 2°39.4 250.3 14.2 247 8.4
2003-07-02 07:07:34 51°9.44 2°39.05 249.7 14.2 247 8.3
2003-07-02 07:08:34 51°9.35 2°38.7 250 14.1 249 8.6
2003-07-02 07:09:34 51°9.27 2°38.35 257.1 14.2 254 8.5
2003-07-02 07:10:34 51°9.2 2°37.99 256.9 14.2 253 8.7
2003-07-02 07:11:34 51°9.13 2°37.63 258.4 13.5 256 8.7
2003-07-02 07:12:34 51°9.1 2°37.34 266.9 8.6 262 9
2003-07-02 07:13:34 51°9.09 2°37.22 299.7 1 231 9.2
2003-07-02 07:14:36 51°9.08 2°37.21 303.3 0.7 203 -999
2003-07-02 07:15:38 51°9.07 2°37.21 317.7 0.8 174 -999
2003-07-02 07:16:34 51°9.06 2°37.21 338.2 0.9 183 8.8
2003-07-02 07:17:34 51°9.04 2°37.21 3.2 0.8 198 8.7
2003-07-02 07:18:34 51°9.04 2°37.2 20.2 0.3 184 8.6
2003-07-02 07:19:34 51°9.03 2°37.2 23   39 8.7
2003-07-02 07:20:34 51°9.04 2°37.2 16.2 0.6 353 8.8
2003-07-02 07:21:34 51°9.05 2°37.19 8.8 0.9 338 8.9
2003-07-02 07:22:34 51°9.07 2°37.18 8.4 1 340 8.9
2003-07-02 07:23:34 51°9.08 2°37.18 5.8 1 347 8.9
2003-07-02 07:24:34 51°9.1 2°37.17 3.6 0.9 343 9.2
2003-07-02 07:25:34 51°9.11 2°37.16 5.7 0.4 336 9
2003-07-02 07:26:34 51°9.11 2°37.15 6.4 0.3 286 9.2
2003-07-02 07:27:34 51°9.11 2°37.15 10.7 0.2 224 9.4
2003-07-02 07:28:34 51°9.11 2°37.14 14.4 0.3 238 9.1
2003-07-02 07:29:34 51°9.1 2°37.14 20.4 0.3 198 9.1
2003-07-02 07:30:34 51°9.1 2°37.14 22.2 0.2 200 9.2
2003-07-02 07:31:34 51°9.1 2°37.13 24.6 0.3 213 9.2
2003-07-02 07:32:34 51°9.09 2°37.13 25.8 0.4 210 9.1
2003-07-02 07:33:34 51°9.09 2°37.12 27.3 0.2 216 9.1
2003-07-02 07:34:34 51°9.09 2°37.12 23.2 0.4 341 9.1
2003-07-02 07:35:34 51°9.1 2°37.12 22.5 0.5 354 9.2
2003-07-02 07:36:34 51°9.11 2°37.12 22.7 0.5 4 9.1
2003-07-02 07:37:34 51°9.12 2°37.11 21.5 0.6 341 9.3
2003-07-02 07:38:34 51°9.13 2°37.11 26.9 0.6 6 9.3
2003-07-02 07:39:34 51°9.14 2°37.12 29.2 0.6 7 9.5
2003-07-02 07:40:34 51°9.15 2°37.12 28.7 0.8 18 9.3
2003-07-02 07:41:34 51°9.16 2°37.12 31.4 0.6 20 9.9
2003-07-02 07:42:34 51°9.17 2°37.13 32.7 0.7 14 9.8
2003-07-02 07:43:34 51°9.18 2°37.13 32.6 0.6 12 9.9
2003-07-02 07:44:34 51°9.19 2°37.14 25.5 1.6 17 9.9
2003-07-02 07:45:34 51°9.25 2°37.1 323.6 5.8 310 11.1
2003-07-02 07:46:34 51°9.25 2°36.89 266.8 10.1 260 11.9
2003-07-02 07:47:34 51°9.24 2°36.6 274.9 11.3 268 13.2
2003-07-02 07:48:34 51°9.24 2°36.3 275.1 11.5 268 14.4
2003-07-02 07:49:34 51°9.23 2°35.99 274.6 11.6 267 14.6
2003-07-02 07:50:34 51°9.22 2°35.68 274.5 11.6 267 15.1
2003-07-02 07:51:34 51°9.21 2°35.38 274.5 11.6 267 14.9
2003-07-02 07:52:34 51°9.2 2°35.07 274.4 11.6 267 15.1
2003-07-02 07:53:34 51°9.19 2°34.77 274.5 11.5 267 16
2003-07-02 07:54:34 51°9.17 2°34.46 274.3 11.6 266 15.3
2003-07-02 07:55:34 51°9.16 2°34.16 274.6 11.5 266 16.2
2003-07-02 07:56:34 51°9.15 2°33.85 274.9 11.7 267 17
2003-07-02 07:57:34 51°9.13 2°33.54 274.4 11.8 266 16.6
2003-07-02 07:58:34 51°9.12 2°33.23 274.3 11.8 266 16
2003-07-02 07:59:34 51°9.1 2°32.96 275.2 9.3 265 15.2
2003-07-02 08:00:34 51°9.09 2°32.75 287.7 5.5 272 12.6
2003-07-02 08:01:34 51°9.11 2°32.66 328.9 2.1 302 10.8
2003-07-02 08:02:34 51°9.11 2°32.65 17 0.7 191 10.5
2003-07-02 08:03:34 51°9.1 2°32.64 37.9 0.7 191 10.9
2003-07-02 08:04:34 51°9.08 2°32.64 40.1 0.7 199 11.3
2003-07-02 08:05:34 51°9.07 2°32.63 35.4 0.8 194 11.7
2003-07-02 08:06:34 51°9.06 2°32.63 32.8 0.6 186 12
2003-07-02 08:07:34 51°9.05 2°32.62 27 0.3 211 12.1
2003-07-02 08:08:34 51°9.05 2°32.62 22.7 0.3 200 12.1
2003-07-02 08:09:34 51°9.05 2°32.62 19.9 0.1 189 12.1
2003-07-02 08:10:34 51°9.04 2°32.61 20.5 0.2 242 12.3
2003-07-02 08:11:34 51°9.04 2°32.61 21.6 0.1 314 12.2
2003-07-02 08:12:34 51°9.05 2°32.61 21.9 0.3 348 12.2
2003-07-02 08:13:34 51°9.05 2°32.6 20.9 0.3 342 11.8
2003-07-02 08:14:34 51°9.06 2°32.6 22.2 0.4 6 11.6
2003-07-02 08:15:34 51°9.06 2°32.6 20.2 0.3 350 11.5
2003-07-02 08:16:34 51°9.07 2°32.6 21.2 0.3 3 11.4
2003-07-02 08:17:34 51°9.07 2°32.6 21.5 0.2 357 11.3
2003-07-02 08:18:34 51°9.07 2°32.6 23.9 0.3 40 11.1
2003-07-02 08:19:34 51°9.08 2°32.6 25 0.2 30 11.1
2003-07-02 08:20:34 51°9.08 2°32.6 25 0.2 344 10.8
2003-07-02 08:21:34 51°9.08 2°32.61 31.2 0.3 30 11
2003-07-02 08:22:34 51°9.09 2°32.62 42.1 0.5 61 11
2003-07-02 08:23:34 51°9.09 2°32.63 53.7 0.7 81 11
2003-07-02 08:24:34 51°9.09 2°32.66 63.8 0.9 92 11.4
2003-07-02 08:25:34 51°9.09 2°32.69 77.2 1.3 111 12
2003-07-02 08:26:34 51°9.08 2°32.72 100.8 1.8 131 13.2
2003-07-02 08:27:34 51°9.05 2°32.76 114.5 2.2 144 14.8
2003-07-02 08:28:34 51°9.02 2°32.79 128.7 2.7 154 16.2
2003-07-02 08:29:34 51°8.96 2°32.82 165.3 4.7 177 17.2
2003-07-02 08:30:34 51°8.87 2°32.78 204.8 5.6 206 17.5
2003-07-02 08:31:34 51°8.79 2°32.7 211.8 6.1 211 17.7
2003-07-02 08:32:34 51°8.7 2°32.62 211.6 5.8 212 17.8
2003-07-02 08:33:34 51°8.62 2°32.55 211.8 5 210 17.6
2003-07-02 08:34:34 51°8.56 2°32.48 213.1 4.5 212 17.3
2003-07-02 08:35:34 51°8.49 2°32.42 219.3 4.4 217 17.5
2003-07-02 08:36:34 51°8.45 2°32.36 235.2 2.2 214 17.9
2003-07-02 08:37:34 51°8.43 2°32.35 222 2.5 208 17.9
2003-07-02 08:38:34 51°8.39 2°32.25 283.9 5.1 267 18
2003-07-02 08:39:34 51°8.43 2°32.19 25.4 3.5 16 18.2
2003-07-02 08:40:34 51°8.46 2°32.28 62.8 3.6 64 17.9
2003-07-02 08:41:34 51°8.49 2°32.32 34.4 1.2 27 17.8
2003-07-02 08:42:34 51°8.5 2°32.33 24.6 0.3 349 17.8
2003-07-02 08:43:34 51°8.5 2°32.32 20.9 0.3 245 17.9
2003-07-02 08:44:34 51°8.5 2°32.31 15.9 0.5 234 17.9
2003-07-02 08:45:34 51°8.49 2°32.3 15 0.7 224 18
2003-07-02 08:46:34 51°8.48 2°32.29 18.1 0.9 202 18.1
2003-07-02 08:47:34 51°8.47 2°32.27 21.6 0.7 219 18.2
2003-07-02 08:48:34 51°8.46 2°32.27 24.7 0.2 238 18
2003-07-02 08:49:34 51°8.46 2°32.26 15.9 0.4 303 18.1
2003-07-02 08:50:34 51°8.47 2°32.25 10.1 0.6 302 18.2
2003-07-02 08:51:34 51°8.48 2°32.23 5.2 0.7 311 18.2
2003-07-02 08:52:34 51°8.49 2°32.21 2.5 1.4 325 17.9
2003-07-02 08:53:34 51°8.51 2°32.2 26.2 1.3 10 17.5
2003-07-02 08:54:34 51°8.52 2°32.22 56.6 1.4 70 17.8
2003-07-02 08:55:34 51°8.52 2°32.27 92.8 2.1 117 17.9
2003-07-02 08:56:34 51°8.51 2°32.31 78.3 1 133 17.8
2003-07-02 08:57:34 51°8.5 2°32.32 55.3 0.6 157 18
2003-07-02 08:58:34 51°8.49 2°32.32 46.4 0.5 190 18
2003-07-02 08:59:34 51°8.48 2°32.32 44.4 0.6 202 18.1
2003-07-02 09:00:34 51°8.47 2°32.32 44.3 0.6 206 18
2003-07-02 09:01:34 51°8.47 2°32.31 43.4 0.6 194 18.2
2003-07-02 09:02:34 51°8.46 2°32.3 42.8 0.6 205 18
2003-07-02 09:03:34 51°8.45 2°32.3 41.9 0.6 206 18.1
2003-07-02 09:04:34 51°8.44 2°32.29 42.7 0.6 211 18.3
2003-07-02 09:05:34 51°8.43 2°32.28 43.5 0.7 201 18.2
2003-07-02 09:06:34 51°8.42 2°32.28 44.2 0.7 208 18.4
2003-07-02 09:07:34 51°8.41 2°32.27 45 0.7 205 18.2
2003-07-02 09:08:34 51°8.4 2°32.26 48.3 0.8 198 18.3
2003-07-02 09:09:34 51°8.39 2°32.25 50.7 0.8 209 18.3
2003-07-02 09:10:34 51°8.37 2°32.25 52.5 0.8 200 18.2
2003-07-02 09:11:34 51°8.36 2°32.24 57.5 0.9 188 18.1
2003-07-02 09:12:34 51°8.35 2°32.24 63.3 0.7 181 18.4
2003-07-02 09:13:34 51°8.33 2°32.24 71.4 0.7 164 18.2
2003-07-02 09:14:34 51°8.33 2°32.27 65.4 2.2 73 17.9
2003-07-02 09:15:34 51°8.37 2°32.3 17.1 4 5 18.2
2003-07-02 09:16:34 51°8.45 2°32.32 28.6 4.8 18 18.2
2003-07-02 09:17:34 51°8.48 2°32.34 29.7 0.7 354 18.3
2003-07-02 09:18:34 51°8.49 2°32.33 25.2 0.3 309 18.1
2003-07-02 09:19:34 51°8.49 2°32.32 23 0.4 261 18.3
2003-07-02 09:20:34 51°8.49 2°32.31 17.5 0.7 238 18.1
2003-07-02 09:21:34 51°8.48 2°32.29 26.1 0.6 218 18.2
2003-07-02 09:22:34 51°8.47 2°32.28 38.8 0.5 214 18.4
2003-07-02 09:23:34 51°8.47 2°32.28 49.2 0.4 193 18.5
2003-07-02 09:24:34 51°8.46 2°32.28 64.3 0.6 174 18.3
2003-07-02 09:25:34 51°8.44 2°32.28 81.2 1 162 18.4
2003-07-02 09:26:34 51°8.42 2°32.29 98.1 1.3 161 18.5
2003-07-02 09:27:34 51°8.4 2°32.31 115.4 1.7 166 18.4
2003-07-02 09:28:34 51°8.37 2°32.31 134 2.1 172 18.3
2003-07-02 09:29:34 51°8.33 2°32.32 132.1 2.1 168 17.8
2003-07-02 09:30:34 51°8.3 2°32.34 108.4 2.1 143 17.2
2003-07-02 09:31:34 51°8.28 2°32.39 88.6 3.4 103 16.9
2003-07-02 09:32:34 51°8.24 2°32.55 118.6 8.2 123 17.7
2003-07-02 09:33:34 51°8.14 2°32.73 143.7 9.2 146 16.7
2003-07-02 09:34:34 51°8.1 2°32.84 84.1 3.3 94 15.8
2003-07-02 09:35:34 51°8.11 2°32.91 63.3 2.1 73 15.7
2003-07-02 09:36:34 51°8.11 2°32.94 55.1 0.7 73 15.7
2003-07-02 09:37:34 51°8.11 2°32.95 50.7 0.3 104 15.9
2003-07-02 09:38:34 51°8.11 2°32.96 46.6 0.2 163 15.9
2003-07-02 09:39:34 51°8.11 2°32.96 41.7 0.3 198 16
2003-07-02 09:40:34 51°8.1 2°32.95 39.8 0.4 213 16
2003-07-02 09:41:34 51°8.1 2°32.94 34.8 0.5 217 16
2003-07-02 09:42:34 51°8.09 2°32.94 34.1 0.6 218 15.9
2003-07-02 09:43:34 51°8.08 2°32.93 34.1 0.6 217 15.8
2003-07-02 09:44:34 51°8.07 2°32.92 32.6 0.6 219 15.9
2003-07-02 09:45:34 51°8.07 2°32.91 28.3 0.6 221 15.6
2003-07-02 09:46:34 51°8.06 2°32.9 27.2 0.7 220 15.6
2003-07-02 09:47:34 51°8.05 2°32.88 26.1 0.6 218 15.2
2003-07-02 09:48:34 51°8.04 2°32.87 26.6 0.7 227 15.4
2003-07-02 09:49:34 51°8.03 2°32.86 27 0.8 218 15.4
2003-07-02 09:50:34 51°8.02 2°32.85 29.3 0.8 211 15.1
2003-07-02 09:51:34 51°8.01 2°32.84 29.7 0.9 211 15.1
2003-07-02 09:52:34 51°8 2°32.83 31.2 0.7 211 15
2003-07-02 09:53:34 51°7.99 2°32.82 35.1 0.8 204 14.7
2003-07-02 09:54:34 51°7.97 2°32.81 38.8 0.9 203 14.9
2003-07-02 09:55:34 51°7.96 2°32.8 37 0.8 207 14.5
2003-07-02 09:56:34 51°7.95 2°32.79 35 0.7 209 14.4
2003-07-02 09:57:34 51°7.94 2°32.78 43.4 0.4 197 14.5
2003-07-02 09:58:34 51°7.94 2°32.78 50 0.4 151 14.3
2003-07-02 09:59:34 51°7.93 2°32.79 60.3 0.6 139 14.3
2003-07-02 10:00:34 51°7.92 2°32.8 71.8 0.8 138 13.8
2003-07-02 10:01:34 51°7.91 2°32.82 79.8 1 135 13.3
2003-07-02 10:02:34 51°7.9 2°32.84 89.2 1.3 138 12.9
2003-07-02 10:03:34 51°7.88 2°32.87 102.2 1.6 149 12.2
2003-07-02 10:04:34 51°7.85 2°32.89 117.8 1.9 155 11.4
2003-07-02 10:05:32 51°7.82 2°32.9 141.7 2.7 168 10.5
2003-07-02 10:06:34 51°7.76 2°32.9 197.6 3.9 200 9.3
2003-07-02 10:07:34 51°7.71 2°32.83 250.4 4.1 237 9.2
2003-07-02 10:08:34 51°7.7 2°32.72 296.8 4.3 275 9.8
2003-07-02 10:09:34 51°7.71 2°32.59 297.5 5.4 280 11
2003-07-02 10:10:34 51°7.73 2°32.44 297.4 5.7 281 12.3
2003-07-02 10:11:34 51°7.75 2°32.29 297.5 5.8 281 13.6
2003-07-02 10:12:34 51°7.77 2°32.14 298.8 5.9 283 14.1
2003-07-02 10:13:34 51°7.79 2°31.99 297.8 5.8 283 15.2
2003-07-02 10:14:34 51°7.8 2°31.87 291 4 271 17.3
2003-07-02 10:15:34 51°7.8 2°31.77 290.3 3.2 265 17.6
2003-07-02 10:16:34 51°7.79 2°31.69 289.5 3 259 18.1
2003-07-02 10:17:34 51°7.78 2°31.62 288.1 2.7 255 18.7
2003-07-02 10:18:34 51°7.77 2°31.56 286.7 2.2 247 19.2
2003-07-02 10:19:34 51°7.75 2°31.51 284.9 2.1 242 18.6
2003-07-02 10:20:34 51°7.73 2°31.47 282 1.9 233 18.6
2003-07-02 10:21:34 51°7.71 2°31.43 279.3 1.8 229 18.4
2003-07-02 10:22:34 51°7.69 2°31.4 278.9 1.7 226 18.2
2003-07-02 10:23:34 51°7.67 2°31.37 275.8 1.6 215 18.1
2003-07-02 10:24:34 51°7.65 2°31.34 267.8 1.6 213 18
2003-07-02 10:25:34 51°7.63 2°31.32 260.3 1.7 215 17.6
2003-07-02 10:26:34 51°7.6 2°31.29 255.7 1.8 215 16.8
2003-07-02 10:27:34 51°7.58 2°31.26 258.4 1.9 219 15.5
2003-07-02 10:28:34 51°7.56 2°31.23 262.8 1.9 222 15
2003-07-02 10:29:34 51°7.53 2°31.2 271.3 1.8 229 15
2003-07-02 10:30:34 51°7.52 2°31.16 285.9 1.7 239 15.6
2003-07-02 10:31:34 51°7.5 2°31.12 307.4 1.6 251 14.7
2003-07-02 10:32:34 51°7.5 2°31.08 333 1.1 264 15.1
2003-07-02 10:33:34 51°7.5 2°31.07 12.1 0.4 283 15.5
2003-07-02 10:34:34 51°7.5 2°31.06 31.9 0.4 35 15.7
2003-07-02 10:35:34 51°7.51 2°31.07 27.2 0.6 9 16.1
2003-07-02 10:36:34 51°7.52 2°31.07 21 0.7 2 16.6
2003-07-02 10:37:34 51°7.54 2°31.07 16.1 0.8 2 17.6
2003-07-02 10:38:34 51°7.55 2°31.07 11.3 1 345 17.6
2003-07-02 10:39:34 51°7.57 2°31.06 10.6 0.9 341 18.8
2003-07-02 10:40:34 51°7.58 2°31.05 14.6 0.9 348 19
2003-07-02 10:41:34 51°7.6 2°31.05 18.8 0.9 356 19.2
2003-07-02 10:42:34 51°7.61 2°31.05 22.3 0.9 2 19.7
2003-07-02 10:43:34 51°7.63 2°31.05 23.7 0.9   19.6
2003-07-02 10:44:34 51°7.64 2°31.05 27.9 0.6 359 19.7
2003-07-02 10:45:34 51°7.65 2°31.05 31.5 0.7 13 19.6
2003-07-02 10:46:34 51°7.66 2°31.06 34.5 0.8 21 19.7
2003-07-02 10:47:34 51°7.67 2°31.07 38.7 1 34 19.6
2003-07-02 10:48:34 51°7.68 2°31.09 39.7 1 32 19.7
2003-07-02 10:49:34 51°7.69 2°31.1 43.8 1 44 19.8
2003-07-02 10:50:34 51°7.7 2°31.13 47.6 1.1 58 19.8
2003-07-02 10:51:34 51°7.72 2°31.15 48.3 1.2 47 19.6
2003-07-02 10:52:34 51°7.73 2°31.18 73 1.9 90 19.4
2003-07-02 10:53:34 51°7.71 2°31.23 131.9 2.8 150 19.8
2003-07-02 10:54:34 51°7.65 2°31.24 169.5 3.9 177 19.4
2003-07-02 10:55:34 51°7.58 2°31.24 188.9 4.6 191 16.2
2003-07-02 10:56:34 51°7.49 2°31.21 187.9 6.8 189 13.9
2003-07-02 10:57:34 51°7.36 2°31.19 187.5 7.5 186 12.1
2003-07-02 10:58:34 51°7.24 2°31.15 190.2 7.8 190 11.5
2003-07-02 10:59:34 51°7.11 2°31.1 201.4 7.8 199 10.6
2003-07-02 11:00:34 51°6.99 2°31.03 204 7.8 200 9.6
2003-07-02 11:01:34 51°6.87 2°30.93 216.4 7.7 212 9.1
2003-07-02 11:02:34 51°6.75 2°30.91 178.8 7.5 178 8.9
2003-07-02 11:03:34 51°6.63 2°30.93 173.9 7.8 173 8.3
2003-07-02 11:04:34 51°6.5 2°30.96 170 7.9 168 8.6
2003-07-02 11:05:34 51°6.39 2°31.07 126.8 7.7 124 11.5
2003-07-02 11:06:34 51°6.38 2°31.26 76.1 7.4 75 12.7
2003-07-02 11:07:34 51°6.41 2°31.46 72.8 8 71 12.4
2003-07-02 11:08:34 51°6.47 2°31.65 71 8.1 70 12.3
2003-07-02 11:09:34 51°6.51 2°31.85 74.1 8.2 73 12
2003-07-02 11:10:34 51°6.54 2°32.07 78.9 8.2 77 11.6
2003-07-02 11:11:34 51°6.58 2°32.26 70.8 7 69 11.4
2003-07-02 11:12:34 51°6.61 2°32.42 69.7 6.5 68 11.2
2003-07-02 11:13:34 51°6.67 2°32.57 51.6 6.6 49 11
2003-07-02 11:14:34 51°6.75 2°32.68 38.9 5.7 38 11.3
2003-07-02 11:15:34 51°6.81 2°32.73 4.3 3.1 4 11.1
2003-07-02 11:16:34 51°6.85 2°32.72 339 1 346 10.5
2003-07-02 11:17:34 51°6.86 2°32.72 329.3 0.3 346 10.4
2003-07-02 11:18:34 51°6.86 2°32.72 317.5 0.1 148 10.4
2003-07-02 11:19:34 51°6.85 2°32.73 310.9 0.4 143 10.5
2003-07-02 11:20:34 51°6.85 2°32.74 307.1 0.6 127 10.7
2003-07-02 11:21:34 51°6.84 2°32.74 299.9 0.4 141 10.8
2003-07-02 11:22:34 51°6.84 2°32.75 294.6 0.3 161 11
2003-07-02 11:23:34 51°6.83 2°32.75 286 0.4 178 11.1
2003-07-02 11:24:34 51°6.83 2°32.76 269.2 0.5 172 11.3
2003-07-02 11:25:34 51°6.81 2°32.76 255.4 0.9 177 11.5
2003-07-02 11:26:34 51°6.8 2°32.76 244.2 0.8 193 11.5
2003-07-02 11:27:34 51°6.78 2°32.75 239 1.1 201 11.7
2003-07-02 11:28:34 51°6.77 2°32.74 241.5 1.4 209 11.5
2003-07-02 11:29:34 51°6.75 2°32.72 241.7 1.1 201 11.8
2003-07-02 11:30:34 51°6.73 2°32.67 282.1 3.1 275 11.7
2003-07-02 11:31:34 51°6.78 2°32.61 336.3 4.6 334 11.7
2003-07-02 11:32:34 51°6.83 2°32.58 359.2 1.8 4 10.8
2003-07-02 11:33:34 51°6.84 2°32.6 17.2 1.2 44 10.2
2003-07-02 11:34:34 51°6.86 2°32.63 22.2 1 62 10.4
2003-07-02 11:35:34 51°6.86 2°32.65 22.7 1 72 10
2003-07-02 11:36:34 51°6.87 2°32.68 23.7 1 78 10.3
2003-07-02 11:37:34 51°6.87 2°32.7 25.3 1 79 10.2
2003-07-02 11:38:34 51°6.87 2°32.73 29.3 1.1 73 10
2003-07-02 11:39:34 51°6.88 2°32.76 43.1 1.6 70 10.5
2003-07-02 11:40:34 51°6.89 2°32.8 61.7 1.9 77 10.6
2003-07-02 11:41:34 51°6.89 2°32.86 90.6 2.1 89 10.7
2003-07-02 11:42:34 51°6.88 2°32.91 116.6 2.2 115 11.4
2003-07-02 11:43:34 51°6.87 2°32.97 143.4 2.1 127 11.7
2003-07-02 11:44:34 51°6.84 2°33 171.4 1.8 145 11.7
2003-07-02 11:45:34 51°6.82 2°33.02 197.6 1.5 160 11.8
2003-07-02 11:46:34 51°6.8 2°33.03 220.9 1.1 174 11.9
2003-07-02 11:47:34 51°6.78 2°33.02 242.9 2.5 234 11.8
2003-07-02 11:48:34 51°6.77 2°32.9 263.8 6.2 258 11.9
2003-07-02 11:49:34 51°6.74 2°32.7 265.4 8.5 260 11.9
2003-07-02 11:50:34 51°6.72 2°32.47 265.5 8.9 260 12.5
2003-07-02 11:51:34 51°6.7 2°32.24 265.5 9 260 12.4
2003-07-02 11:52:34 51°6.67 2°32 265.2 9 261 12.1
2003-07-02 11:53:34 51°6.65 2°31.77 265 9 260 11.5
2003-07-02 11:54:34 51°6.62 2°31.54 260.5 9 255 10.8
2003-07-02 11:55:34 51°6.59 2°31.32 279.6 7.7 275 9.9
2003-07-02 11:56:34 51°6.67 2°31.17 348.9 7.6 352 9
2003-07-02 11:57:34 51°6.81 2°31.17 357 9.1 358 9.6
2003-07-02 11:58:34 51°6.97 2°31.18 3.6 10.6 4 10.2
2003-07-02 11:59:34 51°7.16 2°31.24 21 12.3 21 11.9
2003-07-02 12:00:34 51°7.33 2°31.45 47 13.4 43 12.6
2003-07-02 12:01:34 51°7.49 2°31.71 48.6 14.1 45 13.9
2003-07-02 12:02:34 51°7.66 2°31.98 48.5 14.1 47 14.9
2003-07-02 12:03:34 51°7.8 2°32.28 57.3 14.4 54 16.3
2003-07-02 12:04:34 51°7.94 2°32.58 57.2 14.4 56 17.6
2003-07-02 12:05:34 51°8.08 2°32.89 59.4 14.6 57 17.9
2003-07-02 12:06:34 51°8.21 2°33.22 60.6 14.5 59 18.4
2003-07-02 12:07:34 51°8.34 2°33.54 60.8 14.3 59 18.3
2003-07-02 12:08:34 51°8.47 2°33.86 60.9 14.5 58 18.7
2003-07-02 12:09:34 51°8.6 2°34.18 61.4 14.5 58 18.5
2003-07-02 12:10:34 51°8.7 2°34.53 71.2 14.6 68 19
2003-07-02 12:11:34 51°8.79 2°34.89 73.7 14.6 71 18.5
2003-07-02 12:12:34 51°8.87 2°35.25 72.9 14.6 69 18.1
2003-07-02 12:13:34 51°8.96 2°35.61 72.8 14.6 69 17.2
2003-07-02 12:14:34 51°9.05 2°35.97 71.6 14.8 68 16.8
2003-07-02 12:15:34 51°9.13 2°36.34 71.7 14.7 68 16.2
2003-07-02 12:16:34 51°9.22 2°36.69 71.9 14.4 67 15.5
2003-07-02 12:17:34 51°9.31 2°37.05 72.5 14.5 70 15
2003-07-02 12:18:34 51°9.4 2°37.41 71.8 14.5 70 14.6
2003-07-02 12:19:34 51°9.48 2°37.77 71.9 14.7 68 14.1
2003-07-02 12:20:34 51°9.57 2°38.13 73.7 14.6 70 14
2003-07-02 12:21:34 51°9.66 2°38.5 74.4 14.8 74 13.8
2003-07-02 12:22:34 51°9.75 2°38.86 71.8 14.7 66 13.7
2003-07-02 12:23:34 51°9.85 2°39.22 68.2 14.7 68 13.6
2003-07-02 12:24:34 51°9.95 2°39.57 68.3 14.8 66 13.5
2003-07-02 12:25:34 51°10.06 2°39.92 67.8 14.8 64 13.5
2003-07-02 12:26:34 51°10.16 2°40.28 67.5 14.9 64 13.8
2003-07-02 12:27:34 51°10.27 2°40.64 68.9 14.8 64 13.7
2003-07-02 12:28:34 51°10.37 2°40.99 67.3 15 64 14
2003-07-02 12:29:34 51°10.47 2°41.35 70 14.9 67 14.1
2003-07-02 12:30:34 51°10.58 2°41.71 67.9 14.9 65 14.1
2003-07-02 12:31:34 51°10.68 2°42.06 68.4 14.8 63 14.4
2003-07-02 12:32:34 51°10.79 2°42.42 69.2 14.9 64 14.4
2003-07-02 12:33:34 51°10.89 2°42.78 69.4 14.8 66 14.4
2003-07-02 12:34:34 51°11 2°43.13 68.8 14.9 67 14.7
2003-07-02 12:35:34 51°11.1 2°43.49 73.2 14.8 68 14.8
2003-07-02 12:36:34 51°11.19 2°43.86 73.3 14.9 69 14.8
2003-07-02 12:37:34 51°11.28 2°44.23 72.4 15 67 15
2003-07-02 12:38:34 51°11.37 2°44.6 73 14.8 69 14.8
2003-07-02 12:39:34 51°11.46 2°44.97 73 15 71 15.1
2003-07-02 12:40:34 51°11.55 2°45.34 71.8 15 70 15.1
2003-07-02 12:41:34 51°11.64 2°45.7 71.6 14.9 66 15.1
2003-07-02 12:42:34 51°11.73 2°46.07 72.9 14.6 68 15.1
2003-07-02 12:43:34 51°11.82 2°46.43 72.5 14.8 69 15.3
2003-07-02 12:44:34 51°11.91 2°46.8 73.9 14.9 73 15
2003-07-02 12:45:34 51°12 2°47.17 72.2 14.9 69 14.8
2003-07-02 12:46:34 51°12.1 2°47.53 67.5 14.9 63 14.8
2003-07-02 12:47:34 51°12.21 2°47.89 67 14.9 64 14.8
2003-07-02 12:48:34 51°12.32 2°48.24 67.7 14.9 67 14.9
2003-07-02 12:49:34 51°12.43 2°48.59 68.6 14.8 65 14.6
2003-07-02 12:50:34 51°12.54 2°48.94 68 14.8 62 14.4
2003-07-02 12:51:34 51°12.66 2°49.29 67.1 14.8 63 14.2
2003-07-02 12:52:34 51°12.78 2°49.63 65.9 15 64 14.1
2003-07-02 12:53:34 51°12.9 2°49.97 64.1 15.1 59 13.7
2003-07-02 12:54:34 51°13.03 2°50.31 61.2 14.9 57 14
2003-07-02 12:55:34 51°13.16 2°50.64 60.4 15 56 13.8
2003-07-02 12:56:34 51°13.3 2°50.97 63 15 59 13.6
2003-07-02 12:57:34 51°13.43 2°51.31 60.3 14.9 57 13.8
2003-07-02 12:58:34 51°13.56 2°51.64 62.2 15 58 13.5
2003-07-02 12:59:34 51°13.7 2°51.98 61.6 15 59 13.6
2003-07-02 13:00:34 51°13.83 2°52.31 61.4 14.9 58 13.5
2003-07-02 13:01:34 51°13.96 2°52.65 61.2 14.9 59 13.4
2003-07-02 13:02:34 51°14.08 2°52.98 68.6 14.3 65 13.2
2003-07-02 13:03:34 51°14.19 2°53.32 68.3 14.4 63 12.7
2003-07-02 13:04:34 51°14.28 2°53.66 72.3 13.7 67 12.4
2003-07-02 13:05:34 51°14.37 2°53.99 73 13.4 68 12.2
2003-07-02 13:06:34 51°14.44 2°54.27 72.6 9.8 68 12.2
2003-07-02 13:07:34 51°14.46 2°54.49 109.3 8.3 99 13.4
2003-07-02 13:08:34 51°14.43 2°54.71 115.7 9.3 105 13.3